Time;durP1;ratioP1;P1;durP2;ratioP2;P2;SDS_P1;SDS_P2;PMS_P1;PMS_P2;Temp;Humidity;BMP_temperature;BMP_pressure;BME280_temperature;BME280_humidity;BME280_pressure;Samples;Min_cycle;Max_cycle;Signal;HPM_P1;HPM_P2
2022/12/31 00:03:15;;;;;;;0.20;0.20;;;;;;;12.32;100.00;100283.03;10366946;28;20046;-73
2022/12/31 00:08:18;;;;;;;0.10;0.10;;;;;;;12.29;100.00;100278.88;10340968;28;20052;-73
2022/12/31 00:13:21;;;;;;;0.10;0.10;;;;;;;12.37;100.00;100273.91;10331086;28;20046;-73
2022/12/31 00:18:23;;;;;;;0.10;0.10;;;;;;;12.33;100.00;100268.97;10358616;28;20057;-73
2022/12/31 00:23:25;;;;;;;0.13;0.13;;;;;;;12.52;100.00;100284.22;10334801;28;20089;-73
2022/12/31 00:28:27;;;;;;;0.38;0.38;;;;;;;12.34;100.00;100275.88;10367539;28;20561;-72
2022/12/31 00:33:30;;;;;;;0.55;0.55;;;;;;;12.31;100.00;100276.13;10335760;28;20065;-72
2022/12/31 00:38:32;;;;;;;0.00;0.00;;;;;;;12.60;100.00;100277.44;10332570;28;20060;-73
2022/12/31 00:43:35;;;;;;;0.30;0.30;;;;;;;12.32;100.00;100269.91;10337512;28;20042;-72
2022/12/31 00:48:37;;;;;;;0.20;0.20;;;;;;;12.42;100.00;100278.78;10362873;28;20089;-72
2022/12/31 00:53:40;;;;;;;0.10;0.10;;;;;;;12.36;100.00;100276.63;10331234;28;20046;-72
2022/12/31 00:58:43;;;;;;;0.50;0.50;;;;;;;12.44;100.00;100280.38;10338751;28;20053;-72
2022/12/31 01:03:46;;;;;;;0.10;0.10;;;;;;;12.48;100.00;100288.84;10355566;28;20046;-72
2022/12/31 01:08:49;;;;;;;0.13;0.13;;;;;;;12.30;100.00;100290.19;10349819;28;20058;-72
2022/12/31 01:14:02;;;;;;;0.10;0.10;;;;;;;12.43;100.00;100322.47;10333854;28;20061;-72
2022/12/31 01:19:07;;;;;;;0.10;0.10;;;;;;;12.14;100.00;100330.69;10363948;28;20104;-71
2022/12/31 01:24:11;;;;;;;0.10;0.10;;;;;;;11.90;100.00;100338.44;10335287;28;20046;-71
2022/12/31 01:29:15;;;;;;;0.10;0.10;;;;;;;11.81;100.00;100308.47;10348598;28;20060;-71
2022/12/31 01:34:18;;;;;;;0.10;0.10;;;;;;;11.86;100.00;100308.16;10329636;28;20049;-71
2022/12/31 01:39:20;;;;;;;0.10;0.10;;;;;;;11.76;100.00;100300.06;10362988;28;20050;-72
2022/12/31 01:44:26;;;;;;;0.10;0.10;;;;;;;11.77;100.00;100280.78;10340172;28;20378;-71
2022/12/31 01:49:48;;;;;;;0.10;0.10;;;;;;;11.63;100.00;100305.38;10356893;28;20061;-71
2022/12/31 01:55:18;;;;;;;0.10;0.10;;;;;;;11.71;100.00;100310.06;10374057;28;20409;-71
2022/12/31 02:00:21;;;;;;;0.10;0.10;;;;;;;11.55;100.00;100317.31;10368343;28;20065;-71
2022/12/31 02:05:37;;;;;;;0.10;0.10;;;;;;;11.69;100.00;100328.50;10332543;28;20046;-71
2022/12/31 02:10:39;;;;;;;0.10;0.10;;;;;;;11.68;100.00;100316.38;10338118;28;20081;-71
2022/12/31 02:15:50;;;;;;;0.00;0.00;;;;;;;11.62;100.00;100345.63;10359935;28;20066;-71
2022/12/31 02:21:17;;;;;;;0.10;0.10;;;;;;;11.44;100.00;100394.91;10333543;28;20125;-71
2022/12/31 02:26:55;;;;;;;0.10;0.10;;;;;;;11.44;100.00;100362.63;10336258;28;20092;-71
2022/12/31 02:32:03;;;;;;;0.00;0.00;;;;;;;11.63;100.00;100322.84;10353252;28;20061;-71
2022/12/31 02:37:09;;;;;;;0.17;0.17;;;;;;;11.40;100.00;100277.25;10365933;28;20053;-71
2022/12/31 02:42:11;;;;;;;0.10;0.10;;;;;;;11.44;100.00;100325.91;10325768;28;20556;-71
2022/12/31 02:47:14;;;;;;;0.10;0.10;;;;;;;11.45;100.00;100325.00;10365592;28;20054;-71
2022/12/31 02:52:26;;;;;;;0.10;0.10;;;;;;;11.53;100.00;100320.03;10371484;28;20064;-71
2022/12/31 02:57:41;;;;;;;0.10;0.10;;;;;;;11.43;100.00;100309.34;10355476;28;20043;-72
2022/12/31 03:02:45;;;;;;;0.10;0.10;;;;;;;11.49;100.00;100314.16;10374873;28;20080;-72
2022/12/31 03:07:48;;;;;;;0.20;0.20;;;;;;;11.51;100.00;100319.31;10340021;28;20173;-72
2022/12/31 03:12:50;;;;;;;0.13;0.13;;;;;;;11.62;100.00;100335.13;10329824;28;20056;-72
2022/12/31 03:17:59;;;;;;;0.10;0.10;;;;;;;11.55;100.00;100315.53;10372745;28;20406;-72
2022/12/31 03:23:04;;;;;;;0.10;0.10;;;;;;;11.73;100.00;100318.66;10378475;28;20056;-72
2022/12/31 03:28:13;;;;;;;0.10;0.10;;;;;;;11.82;100.00;100320.63;10358123;28;20453;-72
2022/12/31 03:33:16;;;;;;;0.20;0.20;;;;;;;11.78;100.00;100313.09;10334298;28;20054;-72
2022/12/31 03:38:19;;;;;;;0.10;0.10;;;;;;;11.63;100.00;100315.00;10336956;28;20050;-71
2022/12/31 03:43:21;;;;;;;0.10;0.10;;;;;;;11.76;100.00;100312.38;10332371;28;20082;-71
2022/12/31 03:48:24;;;;;;;0.10;0.10;;;;;;;11.52;100.00;100302.63;10336837;28;20062;-71
2022/12/31 03:53:26;;;;;;;0.00;0.00;;;;;;;11.59;100.00;100309.13;10333652;28;20051;-71
2022/12/31 03:58:29;;;;;;;0.10;0.10;;;;;;;11.77;100.00;100300.91;10335795;28;20065;-72
2022/12/31 04:03:31;;;;;;;0.10;0.10;;;;;;;11.74;100.00;100303.78;10335860;28;20042;-71
2022/12/31 04:08:34;;;;;;;0.10;0.10;;;;;;;11.67;100.00;100308.59;10333398;28;20050;-71
2022/12/31 04:13:36;;;;;;;0.10;0.10;;;;;;;11.69;100.00;100310.16;10335475;28;20051;-71
2022/12/31 04:18:38;;;;;;;0.10;0.10;;;;;;;11.84;100.00;100312.66;10330955;28;20105;-71
2022/12/31 04:23:40;;;;;;;0.10;0.10;;;;;;;11.81;100.00;100326.00;10334323;28;20079;-69
2022/12/31 04:28:43;;;;;;;0.10;0.10;;;;;;;11.73;100.00;100312.56;10331657;28;20052;-68
2022/12/31 04:33:45;;;;;;;0.10;0.10;;;;;;;11.64;100.00;100314.06;10333063;28;20101;-68
2022/12/31 04:38:47;;;;;;;0.10;0.10;;;;;;;11.66;100.00;100322.66;10332434;28;20077;-68
2022/12/31 04:43:52;;;;;;;0.10;0.10;;;;;;;11.77;100.00;100311.41;10334552;28;20046;-68
2022/12/31 04:48:55;;;;;;;0.17;0.17;;;;;;;11.63;100.00;100325.47;10333909;28;20494;-68
2022/12/31 04:53:57;;;;;;;0.10;0.10;;;;;;;11.78;100.00;100300.81;10331270;28;20093;-68
2022/12/31 04:59:00;;;;;;;0.10;0.10;;;;;;;11.72;100.00;100288.13;10328525;28;20046;-68
2022/12/31 05:04:02;;;;;;;0.10;0.10;;;;;;;11.79;100.00;100305.13;10326797;28;20042;-68
2022/12/31 05:09:04;;;;;;;0.10;0.10;;;;;;;11.83;100.00;100308.34;10330570;28;20053;-68
2022/12/31 05:14:07;;;;;;;0.10;0.10;;;;;;;11.78;100.00;100306.03;10330649;28;20108;-68
2022/12/31 05:19:09;;;;;;;0.10;0.10;;;;;;;11.94;100.00;100300.59;10333726;28;20054;-68
2022/12/31 05:24:11;;;;;;;0.10;0.10;;;;;;;11.95;100.00;100318.00;10331769;28;20047;-68
2022/12/31 05:29:14;;;;;;;0.10;0.10;;;;;;;12.08;100.00;100331.09;10347155;28;20046;-68
2022/12/31 05:34:16;;;;;;;0.10;0.10;;;;;;;11.85;100.00;100332.69;10349404;28;20043;-68
2022/12/31 05:39:18;;;;;;;0.10;0.10;;;;;;;11.76;100.00;100339.41;10335910;28;20042;-68
2022/12/31 05:44:20;;;;;;;0.10;0.10;;;;;;;11.93;100.00;100354.00;10334157;28;20050;-69
2022/12/31 05:49:23;;;;;;;0.03;0.03;;;;;;;11.87;100.00;100341.31;10315202;28;20069;-69
2022/12/31 05:54:25;;;;;;;0.40;0.30;;;;;;;11.89;100.00;100344.66;10330095;28;20050;-69
2022/12/31 05:59:27;;;;;;;0.10;0.10;;;;;;;11.92;100.00;100339.22;10331756;28;20058;-68
2022/12/31 06:04:30;;;;;;;0.10;0.10;;;;;;;12.01;100.00;100358.72;10327744;28;20486;-68
2022/12/31 06:09:32;;;;;;;0.10;0.10;;;;;;;12.19;100.00;100370.53;10334996;28;20054;-70
2022/12/31 06:14:35;;;;;;;0.10;0.10;;;;;;;12.36;100.00;100376.38;10338627;28;20046;-70
2022/12/31 06:19:45;;;;;;;0.00;0.00;;;;;;;12.09;100.00;100372.16;10349321;28;20076;-70
2022/12/31 06:24:47;;;;;;;0.10;0.10;;;;;;;12.23;100.00;100353.63;10330166;28;20112;-70
2022/12/31 06:29:50;;;;;;;0.10;0.10;;;;;;;12.03;100.00;100343.72;10338636;28;20058;-70
2022/12/31 06:34:52;;;;;;;0.10;0.10;;;;;;;12.20;100.00;100376.63;10341111;28;20043;-70
2022/12/31 06:39:54;;;;;;;0.20;0.20;;;;;;;12.30;100.00;100347.94;10339167;28;20050;-70
2022/12/31 06:44:57;;;;;;;0.08;0.08;;;;;;;12.38;100.00;100350.84;10338449;28;20463;-70
2022/12/31 06:50:00;;;;;;;0.10;0.10;;;;;;;12.64;100.00;100380.47;10336087;28;20081;-70
2022/12/31 06:55:03;;;;;;;0.10;0.10;;;;;;;12.63;100.00;100368.31;10338888;28;20100;-70
2022/12/31 07:00:06;;;;;;;0.10;0.10;;;;;;;12.63;100.00;100366.50;10356823;28;20182;-70
2022/12/31 07:05:13;;;;;;;0.00;0.00;;;;;;;13.08;100.00;100367.63;10336415;28;20133;-70
2022/12/31 07:10:19;;;;;;;0.10;0.10;;;;;;;12.75;100.00;100356.06;10319244;28;20093;-71
2022/12/31 07:16:13;;;;;;;0.20;0.20;;;;;;;13.00;100.00;100370.84;10351418;28;20375;-71
2022/12/31 07:21:21;;;;;;;0.10;0.10;;;;;;;12.90;100.00;100351.47;10330639;28;20046;-71
2022/12/31 07:26:34;;;;;;;123.63;55.60;;;;;;;13.19;100.00;100336.97;10348065;28;20057;-71
2022/12/31 07:32:07;;;;;;;0.30;0.30;;;;;;;13.05;100.00;100349.50;10367341;28;20076;-71
2022/12/31 07:37:21;;;;;;;0.10;0.10;;;;;;;13.20;100.00;100364.94;10335290;28;20101;-71
2022/12/31 07:42:33;;;;;;;0.10;0.10;;;;;;;13.38;100.00;100368.00;10345805;28;20046;-70
2022/12/31 07:47:35;;;;;;;0.10;0.10;;;;;;;13.31;100.00;100389.56;10344313;28;20057;-69
2022/12/31 07:52:38;;;;;;;0.10;0.10;;;;;;;13.48;100.00;100380.44;10334962;28;20059;-69
2022/12/31 07:57:54;;;;;;;0.65;0.47;;;;;;;13.42;100.00;100399.31;10336240;28;20074;-70
2022/12/31 08:03:27;;;;;;;0.10;0.10;;;;;;;13.64;100.00;100378.31;10335765;28;20062;-70
2022/12/31 08:08:42;;;;;;;0.08;0.08;;;;;;;13.61;100.00;100344.34;10335916;28;20050;-71
2022/12/31 08:13:45;;;;;;;0.00;0.00;;;;;;;13.56;100.00;100351.75;10334436;28;20092;-71
2022/12/31 08:18:47;;;;;;;0.10;0.10;;;;;;;13.61;100.00;100339.09;10334536;28;20053;-71
2022/12/31 08:24:30;;;;;;;0.10;0.10;;;;;;;13.91;100.00;100335.03;10331586;28;20097;-71
2022/12/31 08:29:34;;;;;;;;;;;;;;;13.56;100.00;100333.34;10316558;28;20174;-70
2022/12/31 08:34:48;;;;;;;0.20;0.20;;;;;;;13.44;100.00;100398.25;10347845;28;20388;-70
2022/12/31 08:40:10;;;;;;;0.10;0.10;;;;;;;13.66;100.00;100450.06;10334688;28;20485;-71
2022/12/31 08:45:38;;;;;;;0.20;0.17;;;;;;;13.29;100.00;100468.56;10332906;28;20490;-70
2022/12/31 08:50:40;;;;;;;1999.90;999.90;;;;;;;12.87;100.00;100511.94;10333201;28;20137;-69
2022/12/31 08:55:44;;;;;;;1999.90;999.90;;;;;;;12.85;100.00;100524.38;10330616;28;20493;-69
2022/12/31 09:00:48;;;;;;;1999.90;999.90;;;;;;;13.11;100.00;100514.59;10330383;28;20050;-71
2022/12/31 09:06:11;;;;;;;1999.90;999.90;;;;;;;13.45;100.00;100509.53;10331566;28;20046;-70
2022/12/31 09:11:23;;;;;;;1999.90;999.90;;;;;;;13.59;100.00;100525.13;10335226;28;20047;-71
2022/12/31 09:16:48;;;;;;;1999.90;999.90;;;;;;;13.81;100.00;100528.78;10335067;28;20113;-71
2022/12/31 09:21:51;;;;;;;1999.90;999.90;;;;;;;13.85;100.00;100525.81;10332548;28;20054;-70
2022/12/31 09:27:03;;;;;;;1999.90;999.90;;;;;;;13.85;100.00;100524.94;10332961;28;20073;-70
2022/12/31 09:32:11;;;;;;;1999.90;999.90;;;;;;;14.16;100.00;100536.63;10332731;28;20452;-70
2022/12/31 09:37:46;;;;;;;1999.90;999.90;;;;;;;14.06;100.00;100540.94;10329966;28;20038;-73
2022/12/31 09:43:25;;;;;;;1999.90;999.90;;;;;;;13.97;100.00;100526.69;10327849;28;20046;-72
2022/12/31 09:48:33;;;;;;;1999.90;999.90;;;;;;;14.08;100.00;100544.28;10345747;28;20524;-72
2022/12/31 09:53:57;;;;;;;1999.90;999.90;;;;;;;14.24;100.00;100534.25;10331778;28;20049;-72
2022/12/31 09:59:09;;;;;;;1999.90;999.90;;;;;;;14.16;100.00;100544.53;10332406;28;20134;-72
2022/12/31 10:05:09;;;;;;;1999.90;999.90;;;;;;;13.84;100.00;100546.97;10367049;23;20045;-75
2022/12/31 10:10:28;;;;;;;1999.90;999.90;;;;;;;13.99;100.00;100563.41;10238917;29;20430;-74
2022/12/31 10:15:48;;;;;;;1999.90;999.90;;;;;;;14.23;100.00;100563.34;10335902;28;20128;-73
2022/12/31 10:21:36;;;;;;;1999.90;999.90;;;;;;;14.04;100.00;100574.44;10365661;28;20054;-74
2022/12/31 10:26:49;;;;;;;1999.90;999.90;;;;;;;14.01;100.00;100578.13;10372567;28;20061;-74
2022/12/31 10:32:24;;;;;;;1999.90;999.90;;;;;;;14.11;100.00;100587.00;10366990;28;20473;-74
2022/12/31 10:37:32;;;;;;;1999.90;999.90;;;;;;;14.10;100.00;100571.31;10370572;28;20529;-73
2022/12/31 10:43:03;;;;;;;1999.90;999.90;;;;;;;14.17;100.00;100550.63;10372611;28;20049;-73
2022/12/31 10:48:39;;;;;;;1999.90;999.90;;;;;;;14.21;100.00;100558.19;10367829;28;20104;-73
2022/12/31 10:53:50;;;;;;;1999.90;999.90;;;;;;;14.14;100.00;100564.88;10372518;28;20054;-73
2022/12/31 10:59:00;;;;;;;1999.90;999.90;;;;;;;14.18;100.00;100561.03;10379305;28;20061;-73
2022/12/31 11:04:22;;;;;;;1999.90;999.90;;;;;;;14.20;100.00;100567.03;10376920;28;20058;-73
2022/12/31 11:09:36;;;;;;;1999.90;999.90;;;;;;;14.27;100.00;100570.88;10378239;28;20452;-74
2022/12/31 11:15:01;;;;;;;1999.90;999.90;;;;;;;14.39;100.00;100552.44;10376835;28;20046;-74
2022/12/31 11:20:22;;;;;;;1999.90;999.90;;;;;;;14.37;100.00;100547.28;10379968;28;20100;-75
2022/12/31 11:25:37;;;;;;;1999.90;999.90;;;;;;;14.51;100.00;100551.50;10379150;28;20053;-74
2022/12/31 11:30:48;;;;;;;1999.90;999.90;;;;;;;14.47;100.00;100539.53;10377569;28;20053;-75
2022/12/31 11:36:38;;;;;;;1999.90;999.90;;;;;;;14.45;100.00;100531.72;10373083;28;20046;-77
2022/12/31 11:41:52;;;;;;;1999.90;999.90;;;;;;;14.65;100.00;100558.38;10339206;28;20051;-77
2022/12/31 11:47:07;;;;;;;1999.90;999.90;;;;;;;14.80;100.00;100548.41;10385481;28;20042;-78
2022/12/31 11:52:47;;;;;;;1999.90;999.90;;;;;;;14.74;100.00;100533.91;10372624;28;20050;-77
2022/12/31 11:57:51;;;;;;;1999.90;999.90;;;;;;;14.71;100.00;100531.53;10353885;28;20116;-78
2022/12/31 12:03:00;;;;;;;1999.90;999.90;;;;;;;15.00;100.00;100531.84;10375941;28;20401;-78
2022/12/31 12:08:02;;;;;;;1999.90;999.90;;;;;;;14.87;100.00;100533.78;10373332;28;20473;-79
2022/12/31 12:13:31;;;;;;;1999.90;999.90;;;;;;;14.97;100.00;100539.16;10376498;28;20405;-79
2022/12/31 12:18:47;;;;;;;1999.90;999.90;;;;;;;14.89;100.00;100558.22;10373843;28;20053;-78
2022/12/31 12:24:03;;;;;;;1999.90;999.90;;;;;;;14.70;100.00;100540.38;10373240;28;20436;-79
2022/12/31 12:29:15;;;;;;;1999.90;999.90;;;;;;;14.54;100.00;100542.50;10372221;28;20104;-79
2022/12/31 12:34:29;;;;;;;1999.90;999.90;;;;;;;14.57;100.00;100537.00;10375914;28;20046;-79
2022/12/31 12:39:33;;;;;;;1999.90;999.90;;;;;;;14.49;100.00;100541.09;10376176;28;20054;-78
2022/12/31 12:44:36;;;;;;;1999.90;999.90;;;;;;;14.57;100.00;100548.38;10362727;28;20461;-76
2022/12/31 12:49:48;;;;;;;1999.90;999.90;;;;;;;14.50;100.00;100560.34;10366078;28;20053;-75
2022/12/31 12:55:03;;;;;;;1999.90;999.90;;;;;;;14.46;100.00;100554.50;10368029;28;20042;-76
2022/12/31 13:00:18;;;;;;;1999.90;999.90;;;;;;;14.29;100.00;100549.72;10396466;28;20052;-76
2022/12/31 13:05:55;;;;;;;1999.90;999.90;;;;;;;14.24;100.00;100554.47;10372488;28;20552;-76
2022/12/31 13:11:14;;;;;;;1999.90;999.90;;;;;;;14.46;100.00;100556.31;10375381;28;20050;-76
2022/12/31 13:16:36;;;;;;;1999.90;999.90;;;;;;;14.47;100.00;100550.91;10374061;28;20045;-77
2022/12/31 13:21:56;;;;;;;1999.90;999.90;;;;;;;14.44;100.00;100564.31;10372938;28;20493;-77
2022/12/31 13:27:17;;;;;;;1999.90;999.90;;;;;;;14.48;100.00;100557.00;10371531;28;20504;-77
2022/12/31 13:32:24;;;;;;;1999.90;999.90;;;;;;;14.60;100.00;100555.25;10372364;28;20078;-77
2022/12/31 13:37:33;;;;;;;1999.90;999.90;;;;;;;14.57;100.00;100558.09;10374380;28;20050;-77
2022/12/31 13:42:53;;;;;;;1999.90;999.90;;;;;;;14.52;100.00;100553.16;10369275;28;20559;-77
2022/12/31 13:48:06;;;;;;;1999.90;999.90;;;;;;;14.57;100.00;100543.09;10374119;28;20046;-77
2022/12/31 13:53:18;;;;;;;1999.90;999.90;;;;;;;14.75;100.00;100535.59;10374141;28;20069;-76
2022/12/31 13:58:42;;;;;;;0.28;0.28;;;;;;;14.77;100.00;100538.13;10373225;28;20054;-76
2022/12/31 14:04:01;;;;;;;14.52;1.55;;;;;;;14.59;100.00;100525.44;10372354;28;20085;-77
2022/12/31 14:09:07;;;;;;;6.03;0.93;;;;;;;14.74;100.00;100530.44;10372764;28;20412;-77
2022/12/31 14:14:21;;;;;;;0.60;0.60;;;;;;;15.01;100.00;100514.22;10344548;28;20054;-77
2022/12/31 14:19:50;;;;;;;0.52;0.52;;;;;;;15.00;100.00;100539.75;10389243;28;20053;-77
2022/12/31 14:24:53;;;;;;;0.47;0.47;;;;;;;14.97;100.00;100536.53;10373636;28;20092;-78
2022/12/31 14:30:01;;;;;;;1.10;1.10;;;;;;;14.97;100.00;100550.53;10374402;28;20092;-78
2022/12/31 14:35:21;;;;;;;109.60;99.28;;;;;;;14.80;100.00;100541.34;10380698;28;20069;-79
2022/12/31 14:40:55;;;;;;;17.63;14.48;;;;;;;15.09;100.00;100529.44;10378816;28;20382;-79
2022/12/31 14:46:12;;;;;;;7.68;7.47;;;;;;;14.90;100.00;100549.34;10339533;28;20056;-79
2022/12/31 14:51:14;;;;;;;7.30;6.90;;;;;;;14.76;100.00;100544.34;10323590;28;20050;-79
2022/12/31 14:56:31;;;;;;;6.78;6.40;;;;;;;15.05;100.00;100557.84;10340724;28;20057;-79
2022/12/31 15:01:44;;;;;;;5.45;5.25;;;;;;;14.84;100.00;100555.97;10339612;28;20054;-79
2022/12/31 15:06:57;;;;;;;15.80;11.38;;;;;;;14.65;100.00;100563.63;10339359;28;20130;-79
2022/12/31 15:12:10;;;;;;;4.60;4.50;;;;;;;14.93;100.00;100554.41;10365841;28;20061;-79
2022/12/31 15:17:34;;;;;;;9.77;3.67;;;;;;;14.62;100.00;100566.50;10379363;28;20509;-79
2022/12/31 15:22:46;;;;;;;4.25;4.15;;;;;;;14.82;100.00;100564.94;10378943;28;20057;-79
2022/12/31 15:27:48;;;;;;;0.35;0.32;;;;;;;14.77;100.00;100567.94;10378287;28;20057;-79
2022/12/31 15:32:51;;;;;;;0.20;0.20;;;;;;;14.83;100.00;100561.34;10378375;28;20056;-79
2022/12/31 15:38:01;;;;;;;0.13;0.13;;;;;;;14.42;100.00;100558.31;10377492;28;20056;-79
2022/12/31 15:43:12;;;;;;;0.10;0.10;;;;;;;14.68;100.00;100558.13;10374865;28;20045;-79
2022/12/31 15:48:18;;;;;;;0.03;0.03;;;;;;;14.63;100.00;100569.03;10375883;28;20049;-79
2022/12/31 15:53:40;;;;;;;0.08;0.08;;;;;;;14.70;100.00;100561.47;10369037;28;20049;-79
2022/12/31 15:58:45;;;;;;;0.00;0.00;;;;;;;14.50;100.00;100561.19;10363975;28;20046;-78
2022/12/31 16:04:04;;;;;;;0.10;0.10;;;;;;;14.37;100.00;100567.53;10411245;28;20057;-78
2022/12/31 16:09:15;;;;;;;0.00;0.00;;;;;;;14.44;100.00;100558.19;10385582;28;20148;-78
2022/12/31 16:14:24;;;;;;;0.00;0.00;;;;;;;14.46;100.00;100559.75;10403038;28;20053;-78
2022/12/31 16:19:45;;;;;;;0.10;0.10;;;;;;;14.47;100.00;100564.09;10407739;28;20053;-78
2022/12/31 16:24:56;;;;;;;0.10;0.10;;;;;;;14.27;100.00;100567.41;10417248;28;20132;-78
2022/12/31 16:30:30;;;;;;;0.00;0.00;;;;;;;14.43;100.00;100559.16;10408592;28;20054;-78
2022/12/31 16:35:37;;;;;;;0.08;0.08;;;;;;;14.46;100.00;100543.97;10364741;28;20053;-78
2022/12/31 16:40:41;;;;;;;0.10;0.10;;;;;;;14.40;100.00;100546.22;10372790;28;20057;-78
2022/12/31 16:45:44;;;;;;;0.40;0.40;;;;;;;14.25;100.00;100556.97;10339311;28;20100;-78
2022/12/31 16:50:54;;;;;;;0.10;0.10;;;;;;;14.38;100.00;100561.31;10369720;28;20046;-78
2022/12/31 16:56:04;;;;;;;0.10;0.10;;;;;;;14.18;100.00;100542.63;10370998;28;20053;-78
2022/12/31 17:01:15;;;;;;;0.10;0.10;;;;;;;14.08;100.00;100537.22;10362141;28;20054;-78
2022/12/31 17:06:21;;;;;;;0.10;0.10;;;;;;;14.20;100.00;100530.16;10354586;28;20048;-78
2022/12/31 17:11:37;;;;;;;0.30;0.30;;;;;;;14.05;100.00;100534.81;10374965;28;20057;-78
2022/12/31 17:17:07;;;;;;;0.10;0.10;;;;;;;13.92;100.00;100526.19;10396375;28;20057;-78
2022/12/31 17:22:23;;;;;;;1.00;0.80;;;;;;;14.21;100.00;100536.28;10371970;28;20046;-77
2022/12/31 17:27:36;;;;;;;0.10;0.10;;;;;;;14.10;100.00;100545.00;10369636;28;20405;-77
2022/12/31 17:32:38;;;;;;;0.80;0.80;;;;;;;14.06;100.00;100539.13;10343411;28;20133;-78
2022/12/31 17:37:41;;;;;;;0.05;0.05;;;;;;;13.88;100.00;100528.19;10356608;28;20046;-77
2022/12/31 17:42:43;;;;;;;0.10;0.10;;;;;;;14.01;100.00;100522.00;10372215;28;20058;-77
2022/12/31 17:47:47;;;;;;;0.10;0.10;;;;;;;13.87;100.00;100521.28;10370613;28;20456;-78
2022/12/31 17:52:55;;;;;;;0.43;0.43;;;;;;;13.90;100.00;100512.28;10359784;28;20574;-78
2022/12/31 17:57:57;;;;;;;0.10;0.10;;;;;;;14.11;97.49;100518.56;10368608;28;20485;-77
2022/12/31 18:03:00;;;;;;;1.27;0.85;;;;;;;13.78;100.00;100503.53;10355156;28;20440;-78
2022/12/31 18:08:02;;;;;;;0.05;0.05;;;;;;;13.94;97.88;100516.38;10376720;28;20054;-78
2022/12/31 18:13:06;;;;;;;0.05;0.05;;;;;;;13.84;99.34;100513.59;10380163;28;20060;-78
2022/12/31 18:18:31;;;;;;;0.10;0.10;;;;;;;13.89;95.64;100526.41;10363425;28;20046;-78
2022/12/31 18:23:47;;;;;;;0.25;0.25;;;;;;;14.04;92.75;100532.31;10363422;28;20120;-78
2022/12/31 18:28:50;;;;;;;0.10;0.10;;;;;;;13.93;92.21;100530.47;10373144;28;20528;-77
2022/12/31 18:33:54;;;;;;;0.10;0.10;;;;;;;13.83;94.93;100522.44;10378804;28;20493;-78
2022/12/31 18:38:57;;;;;;;0.10;0.10;;;;;;;13.90;90.44;100504.38;10375961;28;20046;-78
2022/12/31 18:43:59;;;;;;;0.10;0.10;;;;;;;13.97;89.99;100520.56;10376185;28;20046;-77
2022/12/31 18:49:01;;;;;;;0.30;0.30;;;;;;;13.96;88.33;100525.00;10391234;28;20053;-77
2022/12/31 18:54:05;;;;;;;0.10;0.10;;;;;;;13.70;90.66;100524.31;10401911;28;20092;-77
2022/12/31 18:59:08;;;;;;;0.55;0.55;;;;;;;13.61;89.80;100536.38;10376693;28;20049;-77
2022/12/31 19:04:12;;;;;;;0.10;0.10;;;;;;;13.64;88.15;100537.94;10352601;28;20116;-77
2022/12/31 19:09:16;;;;;;;0.10;0.10;;;;;;;13.82;85.53;100538.34;10375381;28;20049;-76
2022/12/31 19:14:38;;;;;;;0.30;0.30;;;;;;;13.75;85.28;100541.44;10374216;28;20140;-77
2022/12/31 19:19:41;;;;;;;0.20;0.20;;;;;;;13.77;85.24;100548.38;10386090;28;20168;-77
2022/12/31 19:24:43;;;;;;;0.10;0.10;;;;;;;13.72;86.62;100554.00;10339389;28;20050;-77
2022/12/31 19:29:45;;;;;;;0.10;0.10;;;;;;;13.65;87.69;100558.88;10370939;28;20054;-77
2022/12/31 19:34:48;;;;;;;0.10;0.10;;;;;;;14.11;80.47;100555.41;10377370;28;20054;-77
2022/12/31 19:39:50;;;;;;;0.30;0.30;;;;;;;13.93;82.27;100560.25;10376214;28;20524;-77
2022/12/31 19:44:52;;;;;;;0.20;0.20;;;;;;;13.90;81.28;100565.78;10378455;28;20378;-77
2022/12/31 19:49:55;;;;;;;0.10;0.10;;;;;;;14.05;80.70;100563.75;10377322;28;20104;-77
2022/12/31 19:54:57;;;;;;;0.10;0.10;;;;;;;13.70;82.89;100564.63;10375945;28;20042;-77
2022/12/31 19:59:59;;;;;;;0.10;0.10;;;;;;;14.02;80.83;100565.78;10376190;28;20509;-76
2022/12/31 20:05:02;;;;;;;0.13;0.13;;;;;;;13.61;82.89;100591.59;10374297;28;20077;-76
2022/12/31 20:10:05;;;;;;;0.20;0.20;;;;;;;13.72;81.28;100588.19;10375453;28;20452;-77
2022/12/31 20:15:08;;;;;;;0.20;0.20;;;;;;;13.85;79.83;100581.06;10377434;28;20045;-76
2022/12/31 20:20:10;;;;;;;0.25;0.25;;;;;;;13.85;79.19;100599.50;10376422;28;20054;-77
2022/12/31 20:25:13;;;;;;;0.65;0.65;;;;;;;13.75;81.03;100587.94;10374287;28;20061;-76
2022/12/31 20:30:18;;;;;;;0.10;0.10;;;;;;;13.90;78.46;100594.72;10375208;28;20053;-76
2022/12/31 20:35:20;;;;;;;1.90;1.88;;;;;;;13.75;79.99;100587.94;10374912;28;20485;-77
2022/12/31 20:40:23;;;;;;;0.10;0.10;;;;;;;13.87;78.26;100607.25;10375375;28;20077;-77
2022/12/31 20:45:25;;;;;;;0.10;0.10;;;;;;;13.85;78.07;100596.88;10352474;28;20046;-77
2022/12/31 20:50:27;;;;;;;0.73;0.73;;;;;;;13.59;79.41;100588.25;10342421;28;20105;-76
2022/12/31 20:55:31;;;;;;;2.47;1.05;;;;;;;13.78;78.37;100605.31;10383169;28;20050;-77
2022/12/31 21:00:33;;;;;;;0.17;0.17;;;;;;;14.02;75.82;100607.91;10346515;28;20490;-77
2022/12/31 21:05:35;;;;;;;3.05;1.23;;;;;;;13.86;77.31;100597.69;10334894;28;20057;-76
2022/12/31 21:10:38;;;;;;;0.38;0.38;;;;;;;13.96;75.19;100613.66;10339815;28;20045;-76
2022/12/31 21:15:46;;;;;;;0.30;0.30;;;;;;;13.80;77.29;100611.28;10374934;28;20056;-76
2022/12/31 21:20:50;;;;;;;0.10;0.10;;;;;;;13.77;77.90;100607.13;10375748;28;20124;-76
2022/12/31 21:25:52;;;;;;;0.40;0.32;;;;;;;14.19;74.23;100575.91;10373394;28;20096;-76
2022/12/31 21:30:58;;;;;;;0.10;0.10;;;;;;;14.00;75.03;100621.19;10375320;28;20108;-77
2022/12/31 21:36:01;;;;;;;4.50;1.08;;;;;;;14.39;73.35;100613.88;10372520;28;20046;-78
2022/12/31 21:41:07;;;;;;;0.10;0.10;;;;;;;13.81;76.90;100637.50;10374337;28;20448;-77
2022/12/31 21:46:10;;;;;;;1.60;1.50;;;;;;;14.26;73.38;100629.75;10374199;28;20382;-77
2022/12/31 21:51:13;;;;;;;0.10;0.10;;;;;;;14.07;75.85;100618.94;10373127;28;20060;-76
2022/12/31 21:56:17;;;;;;;0.45;0.22;;;;;;;14.41;72.60;100645.38;10372782;28;20042;-77
2022/12/31 22:06:41;;;;;;;0.50;0.50;;;;;;;14.64;70.62;100631.31;10373278;28;20081;-76
2022/12/31 22:11:44;;;;;;;0.38;0.38;;;;;;;14.59;70.65;100645.78;10370997;28;20050;-76
2022/12/31 22:16:46;;;;;;;0.20;0.20;;;;;;;14.39;72.25;100661.28;10372037;28;20049;-77
2022/12/31 22:21:48;;;;;;;0.80;0.80;;;;;;;14.83;68.88;100657.06;10374074;23;20049;-77
2022/12/31 22:26:54;;;;;;;0.35;0.30;;;;;;;14.33;73.13;100664.38;10373526;28;20054;-77
2022/12/31 22:31:56;;;;;;;25.17;12.68;;;;;;;14.49;71.99;100658.78;10373600;28;20129;-77
2022/12/31 22:37:02;;;;;;;1.92;1.45;;;;;;;14.78;68.93;100661.84;10374089;28;20049;-77
2022/12/31 22:42:24;;;;;;;0.10;0.10;;;;;;;14.40;72.98;100657.69;10359995;28;20066;-77
2022/12/31 22:47:27;;;;;;;0.10;0.10;;;;;;;14.83;69.28;100682.59;10364968;28;20105;-77
2022/12/31 22:52:29;;;;;;;1.55;0.57;;;;;;;14.59;71.14;100672.13;10349266;28;20050;-78
2022/12/31 22:57:32;;;;;;;0.57;0.57;;;;;;;14.74;69.30;100668.31;10381001;28;20053;-77
2022/12/31 23:02:34;;;;;;;0.40;0.40;;;;;;;14.55;71.44;100691.72;10379685;28;20100;-77
2022/12/31 23:07:43;;;;;;;3.63;3.30;;;;;;;14.40;71.72;100691.91;10380032;28;20374;-77
2022/12/31 23:12:45;;;;;;;0.10;0.10;;;;;;;14.63;70.40;100698.13;10379192;28;20050;-77
2022/12/31 23:23:12;;;;;;;0.30;0.30;;;;;;;14.71;70.12;100708.09;10363328;28;20405;-77